Time;durP1;ratioP1;P1;durP2;ratioP2;P2;SDS_P1;SDS_P2;PMS_P1;PMS_P2;Temp;Humidity;BMP_temperature;BMP_pressure;BME280_temperature;BME280_humidity;BME280_pressure;Samples;Min_cycle;Max_cycle;Signal;HPM_P1;HPM_P2
2023/08/01 00:01:04;;;;;;;6.28;2.85;;;21.70;64.30;;;;;;5094014;28;20214;-54
2023/08/01 00:03:33;;;;;;;4.07;2.08;;;21.70;64.30;;;;;;5093728;28;20263;-57
2023/08/01 00:06:01;;;;;;;5.18;2.00;;;21.60;64.20;;;;;;5093963;28;20301;-55
2023/08/01 00:08:28;;;;;;;3.97;2.13;;;21.60;64.10;;;;;;5093746;28;20197;-59
2023/08/01 00:10:56;;;;;;;4.13;2.22;;;21.60;64.20;;;;;;5093497;28;20233;-59
2023/08/01 00:13:23;;;;;;;4.25;2.33;;;21.60;64.10;;;;;;5093654;28;20190;-60
2023/08/01 00:15:51;;;;;;;6.95;2.72;;;21.60;64.10;;;;;;5093847;28;20221;-56
2023/08/01 00:18:18;;;;;;;3.67;2.00;;;21.60;64.00;;;;;;5093587;28;20192;-56
2023/08/01 00:20:47;;;;;;;4.78;2.20;;;21.60;64.00;;;;;;5093692;28;20226;-58
2023/08/01 00:23:15;;;;;;;5.72;2.60;;;21.60;64.00;;;;;;5093451;28;20243;-59
2023/08/01 00:25:43;;;;;;;4.03;2.55;;;21.60;64.00;;;;;;5093646;28;20217;-58
2023/08/01 00:28:10;;;;;;;8.23;2.33;;;21.60;63.90;;;;;;5093415;28;20190;-58
2023/08/01 00:30:38;;;;;;;6.32;2.38;;;21.60;64.00;;;;;;5092674;28;20234;-57
2023/08/01 00:33:05;;;;;;;4.15;2.35;;;21.60;63.90;;;;;;5046855;28;1340368;-57
2023/08/01 00:35:33;;;;;;;5.22;2.42;;;21.60;63.90;;;;;;5094128;28;20297;-56
2023/08/01 00:38:02;;;;;;;5.88;2.60;;;21.60;63.90;;;;;;5094188;28;20202;-58
2023/08/01 00:40:32;;;;;;;5.45;2.42;;;21.60;63.90;;;;;;5094314;28;20210;-59
2023/08/01 00:42:59;;;;;;;8.00;2.60;;;21.60;63.90;;;;;;5094084;28;20194;-58
2023/08/01 00:48:46;;;;;;;6.38;2.70;;;21.60;63.90;;;;;;5091826;28;20198;-56
2023/08/01 00:51:15;;;;;;;5.70;2.47;;;21.60;63.80;;;;;;5093962;28;20232;-58
2023/08/01 00:53:45;;;;;;;5.28;2.50;;;21.60;63.80;;;;;;5093837;28;20182;-57
2023/08/01 00:56:13;;;;;;;4.40;2.45;;;21.60;63.80;;;;;;5093988;28;20182;-61
2023/08/01 00:58:40;;;;;;;5.50;2.40;;;21.60;63.80;;;;;;5093825;28;20193;-61
2023/08/01 01:01:08;;;;;;;5.55;2.50;;;21.60;63.80;;;;;;5093169;28;20214;-61
2023/08/01 01:03:37;;;;;;;5.57;2.50;;;21.60;63.80;;;;;;5093704;28;20190;-60
2023/08/01 01:06:12;;;;;;;7.70;2.55;;;21.60;63.80;;;;;;5093942;28;20218;-60
2023/08/01 01:08:40;;;;;;;7.38;2.58;;;21.60;63.70;;;;;;5093719;28;20185;-60
2023/08/01 01:11:09;;;;;;;5.82;2.55;;;21.60;63.60;;;;;;5100403;28;20235;-61
2023/08/01 01:13:37;;;;;;;4.45;2.50;;;21.60;63.60;;;;;;5096879;28;20197;-59
2023/08/01 01:16:05;;;;;;;6.43;2.72;;;21.60;63.60;;;;;;5096678;28;20245;-60
2023/08/01 01:18:32;;;;;;;5.05;2.65;;;21.60;63.60;;;;;;5113895;28;20192;-60
2023/08/01 01:21:02;;;;;;;8.07;2.70;;;21.60;63.60;;;;;;5114056;28;20213;-59
2023/08/01 01:23:31;;;;;;;6.40;2.53;;;21.50;63.40;;;;;;5113759;28;20604;-57
2023/08/01 01:25:59;;;;;;;6.85;2.78;;;21.60;63.50;;;;;;5113885;28;20213;-56
2023/08/01 01:28:28;;;;;;;5.88;3.03;;;21.60;63.50;;;;;;5108648;28;20196;-58
2023/08/01 01:31:00;;;;;;;7.95;2.95;;;21.60;63.50;;;;;;5093375;28;20245;-61
2023/08/01 01:33:28;;;;;;;7.50;2.95;;;21.60;63.50;;;;;;5092642;28;20222;-58
2023/08/01 01:35:56;;;;;;;5.25;2.42;;;21.60;63.50;;;;;;5093004;28;20303;-59
2023/08/01 01:38:25;;;;;;;6.20;2.70;;;21.60;63.40;;;;;;5092862;28;20255;-59
2023/08/01 01:40:52;;;;;;;8.80;2.65;;;21.60;63.40;;;;;;5092950;28;20256;-58
2023/08/01 01:43:20;;;;;;;7.07;2.88;;;21.50;63.30;;;;;;5092653;28;20182;-60
2023/08/01 01:45:47;;;;;;;7.85;2.90;;;21.60;63.40;;;;;;5092827;28;20225;-59
2023/08/01 01:48:15;;;;;;;8.90;2.88;;;21.60;63.30;;;;;;5093019;28;20235;-57
2023/08/01 01:50:42;;;;;;;7.38;3.20;;;21.60;63.40;;;;;;5093022;28;20226;-59
2023/08/01 01:53:10;;;;;;;8.32;2.90;;;21.60;63.30;;;;;;5092764;28;20240;-60
2023/08/01 01:55:39;;;;;;;9.75;2.78;;;21.60;63.20;;;;;;5092986;28;20226;-59
2023/08/01 01:58:07;;;;;;;5.88;2.80;;;21.50;63.20;;;;;;5092789;28;20193;-59
2023/08/01 02:00:35;;;;;;;8.00;2.50;;;21.60;63.20;;;;;;5092898;28;20225;-57
2023/08/01 02:03:02;;;;;;;7.43;2.50;;;21.50;63.00;;;;;;5092725;28;20190;-60
2023/08/01 02:05:30;;;;;;;9.35;3.08;;;21.50;63.10;;;;;;5101368;28;20292;-60
2023/08/01 02:07:58;;;;;;;7.63;2.85;;;21.50;63.00;;;;;;5113018;28;20189;-58
2023/08/01 02:10:25;;;;;;;6.35;2.45;;;21.50;63.00;;;;;;5112973;28;20228;-60
2023/08/01 02:12:54;;;;;;;8.98;2.90;;;21.60;63.10;;;;;;5112867;28;20272;-59
2023/08/01 02:15:21;;;;;;;7.25;2.97;;;21.50;62.90;;;;;;5112707;28;20741;-60
2023/08/01 02:17:49;;;;;;;7.35;2.80;;;21.50;63.00;;;;;;5112544;28;20239;-59
2023/08/01 02:20:17;;;;;;;8.07;3.10;;;21.50;62.90;;;;;;5112677;28;20270;-57
2023/08/01 02:22:44;;;;;;;7.63;2.80;;;21.50;63.00;;;;;;5112533;28;20193;-57
2023/08/01 02:25:12;;;;;;;6.25;3.00;;;21.50;62.80;;;;;;5112923;28;20266;-57
2023/08/01 02:27:39;;;;;;;7.40;2.60;;;21.50;62.80;;;;;;5112422;28;20274;-58
2023/08/01 02:30:10;;;;;;;6.30;2.80;;;21.50;62.80;;;;;;5112861;28;20224;-58
2023/08/01 02:32:37;;;;;;;7.07;2.80;;;21.50;62.70;;;;;;5112331;28;20330;-57
2023/08/01 02:35:06;;;;;;;10.02;2.95;;;21.50;62.80;;;;;;5112901;28;20213;-58
2023/08/01 02:37:33;;;;;;;8.15;2.95;;;21.50;62.70;;;;;;5112427;28;20242;-58
2023/08/01 02:40:07;;;;;;;7.32;2.78;;;21.50;62.80;;;;;;5112701;28;20217;-59
2023/08/01 02:42:34;;;;;;;9.18;3.45;;;21.50;62.70;;;;;;5112669;28;20238;-59
2023/08/01 02:45:02;;;;;;;10.18;3.60;;;21.50;62.70;;;;;;5112705;28;20213;-57
2023/08/01 02:47:31;;;;;;;8.20;2.80;;;21.50;62.70;;;;;;5109575;28;20539;-59
2023/08/01 02:49:58;;;;;;;6.90;3.05;;;21.50;62.60;;;;;;5091925;28;20222;-59
2023/08/01 02:52:26;;;;;;;7.82;3.17;;;21.50;62.70;;;;;;5091744;28;20218;-61
2023/08/01 02:54:53;;;;;;;9.68;3.33;;;21.50;62.60;;;;;;5092205;28;20218;-57
2023/08/01 02:57:25;;;;;;;7.82;3.17;;;21.50;62.60;;;;;;5092234;28;20193;-57
2023/08/01 03:00:04;;;;;;;;;;;;;;;;;;;;;
2023/08/01 03:02:41;;;;;;;7.45;3.00;;;21.50;62.60;;;;;;5091809;28;20202;-59
2023/08/01 03:05:17;;;;;;;8.98;3.13;;;21.50;62.50;;;;;;5097795;28;20231;-58
2023/08/01 03:07:45;;;;;;;6.13;3.10;;;21.50;63.00;;;;;;5112492;28;20189;-59
2023/08/01 03:10:12;;;;;;;7.30;3.15;;;21.50;62.50;;;;;;5112504;28;20220;-58
2023/08/01 03:12:40;;;;;;;10.40;3.45;;;21.50;62.50;;;;;;5112219;28;20217;-58
2023/08/01 03:15:08;;;;;;;9.35;3.30;;;21.50;62.50;;;;;;5112740;28;20209;-60
2023/08/01 03:17:46;;;;;;;8.10;3.20;;;21.50;62.50;;;;;;5112341;28;20186;-57
2023/08/01 03:20:14;;;;;;;10.52;3.10;;;21.50;62.50;;;;;;5112332;28;20217;-60
2023/08/01 03:22:42;;;;;;;7.05;3.05;;;21.50;62.40;;;;;;5112250;28;20189;-58
2023/08/01 03:25:10;;;;;;;6.47;3.33;;;21.50;62.40;;;;;;5115709;28;20225;-56
2023/08/01 03:27:37;;;;;;;10.10;3.40;;;21.50;62.40;;;;;;5116063;28;20185;-58
2023/08/01 03:30:08;;;;;;;5.88;2.58;;;21.50;62.40;;;;;;5115995;28;20213;-59
2023/08/01 03:32:37;;;;;;;6.80;3.42;;;21.50;62.40;;;;;;5115613;28;20272;-58
2023/08/01 03:35:06;;;;;;;12.48;3.33;;;21.40;62.20;;;;;;5115704;28;20217;-56
2023/08/01 03:37:34;;;;;;;9.60;3.25;;;21.50;62.30;;;;;;5115876;28;20195;-58
2023/08/01 03:40:01;;;;;;;7.95;3.22;;;21.50;62.30;;;;;;5115772;28;20217;-59
2023/08/01 03:42:29;;;;;;;9.60;3.03;;;21.50;62.20;;;;;;5115419;28;20198;-57
2023/08/01 03:44:56;;;;;;;9.77;3.40;;;21.40;62.20;;;;;;5115709;28;20213;-56
2023/08/01 03:47:24;;;;;;;11.65;4.05;;;21.50;62.20;;;;;;5115665;28;20197;-59
2023/08/01 03:49:53;;;;;;;8.05;3.30;;;21.50;62.30;;;;;;5115577;28;20213;-57
2023/08/01 03:52:21;;;;;;;8.20;3.50;;;21.40;62.10;;;;;;5115489;28;20228;-58
2023/08/01 03:54:50;;;;;;;10.88;3.70;;;21.50;62.20;;;;;;5115491;28;20292;-58
2023/08/01 03:57:17;;;;;;;12.18;3.72;;;21.50;62.20;;;;;;5115480;28;20185;-58
2023/08/01 03:59:45;;;;;;;8.30;3.72;;;21.50;62.20;;;;;;5115375;28;20213;-59
2023/08/01 04:02:13;;;;;;;9.18;3.60;;;21.50;62.10;;;;;;5115060;28;20189;-59
2023/08/01 04:04:41;;;;;;;11.35;3.75;;;21.40;62.00;;;;;;5112934;28;20197;-57
2023/08/01 04:07:10;;;;;;;9.32;3.45;;;21.40;62.00;;;;;;5094927;28;20201;-58
2023/08/01 04:09:39;;;;;;;11.15;3.40;;;21.50;62.10;;;;;;5094858;28;20186;-58
2023/08/01 04:12:07;;;;;;;9.05;3.50;;;21.40;61.90;;;;;;5094702;28;20221;-55
2023/08/01 04:14:35;;;;;;;8.75;3.20;;;21.40;61.90;;;;;;5094660;28;20291;-61
2023/08/01 04:17:02;;;;;;;9.13;3.75;;;21.40;61.90;;;;;;5094750;28;20186;-60
2023/08/01 04:19:30;;;;;;;8.35;3.13;;;21.40;61.90;;;;;;5094321;28;20224;-57
2023/08/01 04:21:57;;;;;;;10.00;3.15;;;21.40;61.90;;;;;;5094264;28;20186;-58
2023/08/01 04:24:27;;;;;;;9.57;3.25;;;21.40;61.90;;;;;;5094561;28;20193;-58
2023/08/01 04:26:54;;;;;;;9.60;3.90;;;21.40;61.90;;;;;;5094151;28;20190;-57
2023/08/01 04:29:22;;;;;;;8.07;3.25;;;21.40;61.90;;;;;;5094468;28;20193;-58
2023/08/01 04:31:49;;;;;;;7.97;3.30;;;21.40;61.90;;;;;;5093925;28;20249;-58
2023/08/01 04:34:20;;;;;;;8.00;3.25;;;21.40;61.90;;;;;;5093987;28;20190;-59
2023/08/01 04:36:47;;;;;;;7.97;3.42;;;21.40;61.90;;;;;;5093370;28;20726;-58
2023/08/01 04:39:15;;;;;;;12.82;3.55;;;21.40;61.90;;;;;;5094247;28;20190;-58
2023/08/01 04:41:44;;;;;;;13.32;3.95;;;21.40;61.90;;;;;;5094166;28;20214;-57
2023/08/01 04:44:12;;;;;;;9.15;3.88;;;21.40;61.90;;;;;;5094054;28;20187;-59
2023/08/01 04:46:39;;;;;;;10.90;3.72;;;21.40;61.80;;;;;;5094279;28;20221;-57
2023/08/01 04:49:07;;;;;;;7.43;3.30;;;21.40;61.80;;;;;;5094131;28;20198;-58
2023/08/01 04:51:34;;;;;;;10.02;3.63;;;21.40;61.80;;;;;;5094110;28;20229;-56
2023/08/01 04:54:02;;;;;;;13.13;3.67;;;21.40;61.80;;;;;;5093871;28;20222;-59
2023/08/01 04:56:29;;;;;;;8.85;3.75;;;21.40;61.80;;;;;;5093765;28;20221;-58
2023/08/01 04:58:59;;;;;;;12.52;3.90;;;21.40;61.80;;;;;;5093880;28;20186;-57
2023/08/01 05:01:26;;;;;;;10.18;3.70;;;21.40;61.80;;;;;;5093999;28;20218;-56
2023/08/01 05:03:54;;;;;;;9.20;3.88;;;21.40;61.80;;;;;;5093667;28;20181;-58
2023/08/01 05:06:21;;;;;;;10.15;3.38;;;21.40;61.90;;;;;;5110108;28;20220;-57
2023/08/01 05:08:49;;;;;;;8.18;3.38;;;21.40;61.80;;;;;;5114133;28;20210;-55
2023/08/01 05:11:16;;;;;;;9.02;3.75;;;21.40;61.80;;;;;;5114042;28;20274;-56
2023/08/01 05:13:44;;;;;;;9.65;3.45;;;21.40;61.80;;;;;;5113664;28;20200;-58
2023/08/01 05:19:23;;;;;;;10.25;3.80;;;21.40;61.80;;;;;;5044503;28;20288;-59
2023/08/01 05:21:50;;;;;;;10.18;4.00;;;21.40;61.80;;;;;;5113961;28;20228;-63
2023/08/01 05:24:18;;;;;;;8.48;3.63;;;21.40;61.80;;;;;;5113692;28;20185;-58
2023/08/01 05:26:45;;;;;;;11.57;3.42;;;21.40;61.80;;;;;;5113937;28;20223;-58
2023/08/01 05:29:13;;;;;;;10.10;3.55;;;21.40;61.80;;;;;;5113313;28;20197;-56
2023/08/01 05:31:41;;;;;;;10.15;3.67;;;21.40;61.80;;;;;;5113115;28;20236;-58
2023/08/01 05:34:09;;;;;;;10.05;3.80;;;21.40;61.80;;;;;;5113205;28;20200;-59
2023/08/01 05:36:36;;;;;;;6.88;3.10;;;21.40;61.80;;;;;;5113436;28;20217;-58
2023/08/01 05:39:04;;;;;;;11.48;4.32;;;21.40;61.80;;;;;;5113217;28;20528;-57
2023/08/01 05:41:32;;;;;;;8.98;3.42;;;21.40;61.80;;;;;;5113304;28;20217;-58
2023/08/01 05:44:00;;;;;;;11.85;4.15;;;21.40;61.80;;;;;;5113354;28;20196;-56
2023/08/01 05:46:28;;;;;;;10.55;3.65;;;21.40;61.80;;;;;;5112847;28;20219;-57
2023/08/01 05:48:57;;;;;;;9.38;3.70;;;21.40;61.80;;;;;;5113331;28;20192;-56
2023/08/01 05:51:27;;;;;;;8.77;3.50;;;21.40;61.80;;;;;;5113454;28;20216;-58
2023/08/01 05:53:55;;;;;;;9.63;4.22;;;21.40;61.80;;;;;;5112985;28;20225;-56
2023/08/01 05:56:23;;;;;;;11.45;3.53;;;21.40;62.60;;;;;;5113400;28;20213;-58
2023/08/01 05:58:51;;;;;;;9.32;3.90;;;21.30;61.70;;;;;;5112847;28;20722;-57
2023/08/01 06:01:19;;;;;;;9.75;3.70;;;21.40;61.80;;;;;;5113233;28;20209;-56
2023/08/01 06:03:47;;;;;;;10.75;3.30;;;21.40;62.60;;;;;;5112757;28;20326;-60
2023/08/01 06:06:15;;;;;;;11.63;3.85;;;21.40;61.80;;;;;;5097733;28;20221;-59
2023/08/01 06:08:45;;;;;;;9.77;3.85;;;21.40;61.80;;;;;;5092703;28;20186;-56
2023/08/01 06:11:13;;;;;;;10.18;3.78;;;21.40;61.80;;;;;;5092817;28;20217;-58
2023/08/01 06:13:40;;;;;;;10.90;3.50;;;21.30;61.60;;;;;;5092207;28;20228;-57
2023/08/01 06:16:08;;;;;;;10.32;3.40;;;21.40;61.80;;;;;;5092670;28;20218;-58
2023/08/01 06:18:36;;;;;;;10.07;3.42;;;21.40;61.70;;;;;;5092238;28;20193;-56
2023/08/01 06:21:03;;;;;;;9.43;3.30;;;21.40;61.80;;;;;;5092542;28;20222;-58
2023/08/01 06:23:32;;;;;;;12.85;3.75;;;21.40;61.80;;;;;;5092401;28;20186;-53
2023/08/01 06:26:00;;;;;;;8.75;3.47;;;21.40;61.80;;;;;;5092555;28;20229;-57
2023/08/01 06:28:27;;;;;;;8.90;3.60;;;21.40;61.80;;;;;;5092423;28;20186;-60
2023/08/01 06:30:55;;;;;;;10.13;3.90;;;21.40;61.70;;;;;;5092492;28;20217;-58
2023/08/01 06:33:22;;;;;;;9.32;3.88;;;21.40;61.70;;;;;;5091894;28;20252;-59
2023/08/01 06:35:50;;;;;;;10.75;4.00;;;21.40;61.70;;;;;;5092204;28;20300;-59
2023/08/01 06:38:18;;;;;;;13.18;3.80;;;21.40;61.80;;;;;;5092304;28;20202;-59
2023/08/01 06:40:46;;;;;;;9.10;3.78;;;21.40;61.70;;;;;;5092066;28;20221;-61
2023/08/01 06:43:14;;;;;;;10.02;3.70;;;21.40;61.70;;;;;;5092235;28;20194;-57
2023/08/01 06:45:42;;;;;;;8.77;3.30;;;21.40;61.80;;;;;;5092324;28;20213;-55
2023/08/01 06:48:09;;;;;;;12.77;3.67;;;21.40;61.70;;;;;;5092331;28;20270;-61
2023/08/01 06:50:37;;;;;;;8.75;3.80;;;21.40;61.70;;;;;;5092250;28;20621;-59
2023/08/01 06:53:06;;;;;;;10.38;3.50;;;21.40;61.70;;;;;;5091482;28;20214;-53
2023/08/01 06:55:34;;;;;;;8.90;3.45;;;21.40;61.70;;;;;;5104679;28;20245;-57
2023/08/01 06:58:03;;;;;;;9.10;3.47;;;21.40;61.70;;;;;;5103256;28;20196;-58
2023/08/01 07:00:31;;;;;;;8.50;3.38;;;21.40;61.70;;;;;;5106868;28;20213;-61
2023/08/01 07:03:01;;;;;;;13.13;4.13;;;21.40;61.70;;;;;;5115216;27;20185;-59
2023/08/01 07:08:13;;;;;;;13.65;4.22;;;21.60;61.90;;;;;;5084100;27;20215;-58
2023/08/01 07:10:40;;;;;;;10.85;3.38;;;21.60;61.90;;;;;;5104674;28;20229;-59
2023/08/01 07:13:11;;;;;;;11.68;3.55;;;21.60;61.90;;;;;;5108692;27;20225;-60
2023/08/01 07:15:47;;;;;;;10.60;3.80;;;21.60;61.90;;;;;;5131174;27;20213;-59
2023/08/01 07:18:42;;;;;;;9.20;3.53;;;21.60;61.90;;;;;;5108678;27;20610;-61
2023/08/01 07:21:44;;;;;;;11.27;3.42;;;21.70;62.00;;;;;;5078311;27;20224;-57
2023/08/01 07:24:13;;;;;;;6.68;3.40;;;21.80;62.10;;;;;;5101247;27;20192;-58
2023/08/01 07:26:42;;;;;;;8.70;3.60;;;21.80;62.10;;;;;;5113010;27;20246;-60
2023/08/01 07:29:15;;;;;;;12.30;3.78;;;21.80;62.10;;;;;;5124713;27;20246;-59
2023/08/01 07:31:55;;;;;;;12.70;3.65;;;21.90;62.10;;;;;;5117495;27;20239;-58
2023/08/01 07:34:22;;;;;;;8.77;3.42;;;21.90;62.00;;;;;;5107645;27;20239;-55
2023/08/01 07:36:50;;;;;;;11.65;4.13;;;21.90;62.10;;;;;;5114462;28;20213;-55
2023/08/01 07:39:21;;;;;;;9.45;3.78;;;22.00;62.20;;;;;;5104202;27;20273;-58
2023/08/01 07:41:49;;;;;;;9.63;3.03;;;22.00;62.10;;;;;;5094940;27;20226;-57
2023/08/01 07:44:18;;;;;;;11.25;3.17;;;22.00;61.80;;;;;;5113506;27;20178;-56
2023/08/01 07:46:46;;;;;;;10.10;3.83;;;22.10;61.80;;;;;;5099046;28;20232;-58
2023/08/01 07:49:13;;;;;;;10.38;3.90;;;22.10;61.70;;;;;;5105282;27;20196;-58
2023/08/01 07:51:41;;;;;;;10.27;4.00;;;22.20;61.70;;;;;;5113488;28;20216;-57
2023/08/01 07:54:08;;;;;;;10.02;3.53;;;22.20;61.70;;;;;;5111664;27;21007;-59
2023/08/01 07:56:35;;;;;;;11.65;4.03;;;22.20;61.60;;;;;;5113083;28;20227;-57
2023/08/01 07:59:02;;;;;;;10.70;3.70;;;22.20;61.60;;;;;;5112941;27;20181;-57
2023/08/01 08:01:31;;;;;;;11.45;3.80;;;22.20;61.40;;;;;;5112627;27;20360;-59
2023/08/01 08:03:58;;;;;;;6.55;2.90;;;22.20;61.40;;;;;;5113427;27;20268;-59
2023/08/01 08:06:25;;;;;;;11.05;3.17;;;22.30;61.50;;;;;;5096268;28;20233;-56
2023/08/01 08:08:52;;;;;;;12.63;4.03;;;22.30;61.40;;;;;;5110356;27;20567;-60
2023/08/01 08:11:19;;;;;;;11.00;3.65;;;22.30;61.40;;;;;;5112819;28;20965;-63
2023/08/01 08:13:46;;;;;;;12.95;3.92;;;22.30;61.40;;;;;;5112807;27;20209;-64
2023/08/01 08:16:14;;;;;;;10.70;3.97;;;22.30;61.30;;;;;;5111305;28;20217;-57
2023/08/01 08:18:43;;;;;;;13.40;4.05;;;22.30;61.30;;;;;;5112653;27;20220;-59
2023/08/01 08:24:03;;;;;;;12.07;3.55;;;22.40;61.30;;;;;;5029800;28;20192;-57
2023/08/01 08:26:31;;;;;;;10.32;3.30;;;22.40;61.20;;;;;;5029877;28;20310;-55
2023/08/01 08:28:59;;;;;;;10.50;3.78;;;22.30;61.00;;;;;;5109543;28;20197;-58
2023/08/01 08:31:26;;;;;;;14.88;4.13;;;22.40;61.10;;;;;;5111858;28;20220;-56
2023/08/01 08:33:54;;;;;;;14.10;4.18;;;22.40;61.00;;;;;;5112535;28;20209;-59
2023/08/01 08:39:43;;;;;;;8.82;3.53;;;22.40;60.90;;;;;;5038093;28;20699;-59
2023/08/01 08:42:13;;;;;;;10.05;3.55;;;22.40;60.90;;;;;;5049264;28;20239;-60
2023/08/01 08:45:08;;;;;;;8.27;3.40;;;22.40;60.80;;;;;;5097651;27;20209;-59
2023/08/01 08:47:57;;;;;;;8.00;3.10;;;22.40;60.80;;;;;;5112562;28;20216;-60
2023/08/01 08:53:46;;;;;;;9.45;3.45;;;22.40;60.70;;;;;;5057256;28;20318;-60
2023/08/01 08:56:14;;;;;;;9.63;3.50;;;22.40;60.70;;;;;;5067641;28;20222;-58
2023/08/01 08:58:57;;;;;;;11.00;3.53;;;22.40;60.70;;;;;;5061125;28;20203;-58
2023/08/01 09:01:24;;;;;;;7.07;3.08;;;22.40;60.70;;;;;;5050356;28;20714;-57
2023/08/01 09:03:52;;;;;;;8.13;3.20;;;22.40;60.60;;;;;;5060330;28;20238;-58
2023/08/01 09:06:26;;;;;;;9.52;3.40;;;22.40;60.60;;;;;;5063910;28;20227;-58
2023/08/01 09:09:02;;;;;;;7.22;3.15;;;22.50;60.60;;;;;;5068526;28;20289;-58
2023/08/01 09:11:29;;;;;;;12.35;3.38;;;22.40;60.50;;;;;;5067931;28;20218;-57
2023/08/01 09:13:58;;;;;;;11.95;3.53;;;22.40;60.60;;;;;;5057459;28;20225;-57
2023/08/01 09:16:26;;;;;;;7.45;3.28;;;22.40;60.60;;;;;;5067952;28;20711;-57
2023/08/01 09:19:00;;;;;;;10.60;3.50;;;22.40;60.60;;;;;;5067178;28;20928;-54
2023/08/01 09:21:33;;;;;;;10.95;3.47;;;22.40;60.60;;;;;;5058972;28;21539;-57
2023/08/01 09:24:38;;;;;;;11.73;3.53;;;22.40;60.50;;;;;;5089865;27;20197;-58
2023/08/01 09:27:08;;;;;;;8.90;3.40;;;22.50;60.70;;;;;;5103016;28;20240;-57
2023/08/01 09:29:35;;;;;;;9.50;3.47;;;22.40;60.60;;;;;;5121304;27;20190;-58
2023/08/01 09:32:13;;;;;;;8.13;3.45;;;22.50;60.70;;;;;;5108187;28;20225;-58
2023/08/01 09:34:51;;;;;;;9.45;3.45;;;22.50;60.60;;;;;;5110828;28;20303;-62
2023/08/01 09:37:19;;;;;;;5.82;3.22;;;22.50;60.70;;;;;;5110301;28;20223;-64
2023/08/01 09:39:54;;;;;;;10.00;3.35;;;22.50;60.70;;;;;;5111708;27;20185;-66
2023/08/01 09:43:02;;;;;;;10.02;3.30;;;22.50;60.70;;;;;;5111263;28;20216;-62
2023/08/01 09:45:30;;;;;;;9.27;3.50;;;22.50;60.60;;;;;;5108474;27;20276;-66
2023/08/01 09:47:57;;;;;;;10.07;3.47;;;22.50;60.60;;;;;;5111841;28;20213;-62
2023/08/01 09:53:31;;;;;;;9.75;3.53;;;22.50;60.50;;;;;;5100699;28;20224;-65
2023/08/01 09:56:28;;;;;;;;;;;;;;;;;;;;;
2023/08/01 09:58:57;;;;;;;9.23;3.63;;;22.60;60.50;;;;;;5096025;28;20198;-64
2023/08/01 10:01:27;;;;;;;9.25;3.42;;;22.50;60.60;;;;;;5109167;28;20225;-66
2023/08/01 10:11:03;;;;;;;9.02;3.30;;;22.50;60.50;;;;;;5129284;27;20183;-63
2023/08/01 10:13:33;;;;;;;7.97;3.40;;;22.60;60.60;;;;;;5128969;27;20228;-62
2023/08/01 10:16:01;;;;;;;12.85;3.38;;;22.50;60.60;;;;;;5130096;27;20184;-64
2023/08/01 10:18:30;;;;;;;8.70;3.50;;;22.50;60.60;;;;;;5129181;27;20220;-63
2023/08/01 10:23:41;;;;;;;8.52;3.47;;;22.50;60.60;;;;;;5126569;27;20204;-63
2023/08/01 10:26:12;;;;;;;8.05;3.65;;;22.50;60.70;;;;;;5129998;27;20210;-62
2023/08/01 10:28:43;;;;;;;5.85;3.17;;;22.50;60.70;;;;;;5113228;28;20280;-63
2023/08/01 10:31:18;;;;;;;7.88;3.40;;;22.50;60.70;;;;;;5110118;28;20226;-62
2023/08/01 10:33:46;;;;;;;7.50;3.28;;;22.50;60.70;;;;;;5075056;28;20300;-63
2023/08/01 10:36:15;;;;;;;11.15;3.97;;;22.50;60.80;;;;;;5093366;28;20198;-62
2023/08/01 10:38:50;;;;;;;10.65;3.85;;;22.50;60.70;;;;;;5077050;28;20215;-64
2023/08/01 10:41:22;;;;;;;8.30;3.80;;;22.60;60.90;;;;;;5072531;28;20186;-63
2023/08/01 10:43:53;;;;;;;7.38;3.80;;;22.50;60.80;;;;;;5073600;28;20334;-63
2023/08/01 10:46:20;;;;;;;9.13;3.10;;;22.50;60.70;;;;;;5065933;28;20277;-63
2023/08/01 10:48:52;;;;;;;8.15;3.70;;;22.50;61.50;;;;;;5073858;28;20775;-62
2023/08/01 10:51:20;;;;;;;9.80;4.00;;;22.50;60.60;;;;;;5072914;28;20187;-63
2023/08/01 10:53:48;;;;;;;10.73;3.90;;;22.60;60.70;;;;;;5073069;28;20222;-62
2023/08/01 10:56:19;;;;;;;8.10;3.70;;;22.60;60.70;;;;;;5060220;28;20203;-64
2023/08/01 10:58:48;;;;;;;9.88;3.70;;;22.60;60.70;;;;;;5068372;28;20301;-61
2023/08/01 11:01:16;;;;;;;9.00;3.78;;;22.60;60.80;;;;;;5072896;28;20187;-63
2023/08/01 11:03:56;;;;;;;7.78;3.60;;;22.60;60.80;;;;;;5070216;28;20254;-63
2023/08/01 11:06:23;;;;;;;8.75;3.75;;;22.60;60.90;;;;;;5062326;28;20232;-62
2023/08/01 11:08:50;;;;;;;9.20;3.30;;;22.60;60.80;;;;;;5073113;28;20222;-61
2023/08/01 11:11:18;;;;;;;8.98;3.45;;;22.60;60.90;;;;;;5062739;28;20282;-61
2023/08/01 11:14:02;;;;;;;;;;;;;;;;;;;;;
2023/08/01 11:16:32;;;;;;;10.52;4.05;;;22.60;61.10;;;;;;5056670;28;20205;-62
2023/08/01 11:19:00;;;;;;;9.20;3.80;;;22.70;61.20;;;;;;5091602;28;20308;-61
2023/08/01 11:21:28;;;;;;;8.68;3.67;;;22.60;61.10;;;;;;5092823;28;20226;-62
2023/08/01 11:23:55;;;;;;;7.32;3.78;;;22.60;61.20;;;;;;5092401;28;20210;-61
2023/08/01 11:26:23;;;;;;;10.07;4.10;;;22.70;62.20;;;;;;5092108;28;20208;-62
2023/08/01 11:28:50;;;;;;;10.50;3.80;;;22.70;61.40;;;;;;5092072;28;20275;-63
2023/08/01 11:31:18;;;;;;;9.73;4.13;;;22.70;61.50;;;;;;5092698;28;20183;-63
2023/08/01 11:37:09;;;;;;;6.65;3.50;;;22.70;61.40;;;;;;5052756;28;20325;-62
2023/08/01 11:42:33;;;;;;;6.25;3.65;;;22.70;61.30;;;;;;5059178;28;20207;-64
2023/08/01 11:45:29;;;;;;;10.43;3.75;;;22.70;61.40;;;;;;5071723;28;20195;-61
2023/08/01 11:48:06;;;;;;;10.00;4.13;;;22.70;61.50;;;;;;5061338;28;20223;-65
2023/08/01 11:50:35;;;;;;;8.32;3.83;;;22.70;61.50;;;;;;5061907;28;20215;-62
2023/08/01 11:53:02;;;;;;;6.53;3.80;;;22.70;61.50;;;;;;5069525;28;20218;-62
2023/08/01 11:55:30;;;;;;;11.73;4.15;;;22.70;61.60;;;;;;5072877;28;20214;-62
2023/08/01 11:57:58;;;;;;;12.80;4.00;;;22.70;61.70;;;;;;5071934;28;20218;-62
2023/08/01 12:00:27;;;;;;;13.25;3.88;;;22.70;61.70;;;;;;5071780;28;20274;-63
2023/08/01 12:05:47;;;;;;;9.32;4.00;;;22.80;61.70;;;;;;5049221;28;20223;-64
2023/08/01 12:08:19;;;;;;;7.65;3.33;;;22.80;61.50;;;;;;5059437;28;20223;-63
2023/08/01 12:10:47;;;;;;;7.88;3.80;;;22.80;61.50;;;;;;5057595;28;20580;-63
2023/08/01 12:13:22;;;;;;;11.55;3.95;;;22.80;61.80;;;;;;5066896;28;20219;-63
2023/08/01 12:16:20;;;;;;;;;;;;;;;;;;;;;
2023/08/01 12:18:48;;;;;;;12.02;4.35;;;22.90;62.40;;;;;;5042831;28;20231;-61
2023/08/01 12:21:17;;;;;;;11.68;4.57;;;22.90;62.20;;;;;;5065335;28;20275;-58
2023/08/01 12:23:50;;;;;;;9.82;3.75;;;22.80;62.10;;;;;;5071190;28;20305;-62
2023/08/01 12:29:00;;;;;;;11.02;4.00;;;22.90;63.50;;;;;;5068871;28;20233;-60
2023/08/01 12:31:27;;;;;;;9.15;3.53;;;22.90;62.80;;;;;;5061953;28;20290;-60
2023/08/01 12:33:55;;;;;;;9.73;3.53;;;22.90;63.20;;;;;;5098404;27;20233;-60
2023/08/01 12:36:23;;;;;;;7.07;3.58;;;22.90;63.20;;;;;;5111535;27;20205;-62
2023/08/01 12:39:03;;;;;;;10.63;3.60;;;22.90;63.30;;;;;;5115920;27;20334;-59
2023/08/01 12:41:40;;;;;;;;;;;;;;;;;;;;;
2023/08/01 12:44:08;;;;;;;8.48;3.75;;;22.90;63.30;;;;;;5112044;27;20217;-63
2023/08/01 12:46:45;;;;;;;8.80;3.83;;;22.90;63.40;;;;;;5110676;28;20201;-62
2023/08/01 12:49:13;;;;;;;7.07;3.70;;;23.00;63.40;;;;;;5100343;27;20228;-62
2023/08/01 12:51:44;;;;;;;9.15;3.72;;;22.90;63.20;;;;;;5123837;27;20251;-68
2023/08/01 12:54:11;;;;;;;9.50;3.42;;;23.00;63.50;;;;;;5117499;27;20220;-61
2023/08/01 12:56:38;;;;;;;10.55;3.85;;;23.00;63.30;;;;;;5114875;27;20650;-56
2023/08/01 12:59:08;;;;;;;8.70;3.42;;;23.00;63.10;;;;;;5110575;27;20992;-57
2023/08/01 13:01:36;;;;;;;12.15;3.75;;;23.00;64.70;;;;;;5096948;27;20208;-59
2023/08/01 13:04:05;;;;;;;12.77;4.93;;;23.10;64.00;;;;;;5102406;27;20235;-59
2023/08/01 13:06:35;;;;;;;12.60;8.15;;;23.10;64.70;;;;;;5105070;27;20201;-59
2023/08/01 13:09:07;;;;;;;15.77;9.93;;;23.10;64.30;;;;;;5113235;27;20244;-55
2023/08/01 13:11:34;;;;;;;23.58;14.32;;;23.10;63.90;;;;;;5114909;27;20267;-55
2023/08/01 13:14:01;;;;;;;16.55;12.23;;;23.10;63.50;;;;;;5118327;27;20212;-64
2023/08/01 13:16:28;;;;;;;18.25;14.05;;;23.10;63.20;;;;;;5114247;27;20715;-67
2023/08/01 13:18:56;;;;;;;51.03;36.17;;;23.20;63.00;;;;;;5124124;27;20244;-65
2023/08/01 13:21:26;;;;;;;48.75;33.55;;;23.20;63.60;;;;;;5113508;27;20200;-65
2023/08/01 13:27:17;;;;;;;44.83;33.90;;;23.30;63.20;;;;;;5095881;28;20233;-61
2023/08/01 13:29:44;;;;;;;35.67;23.75;;;23.30;63.30;;;;;;5113910;27;20632;-60
2023/08/01 13:32:12;;;;;;;34.28;21.80;;;23.30;63.10;;;;;;5120694;27;20240;-62
2023/08/01 13:34:39;;;;;;;32.22;19.95;;;23.30;62.90;;;;;;5107265;27;20224;-65
2023/08/01 13:37:08;;;;;;;25.77;17.75;;;23.30;62.80;;;;;;5111018;27;20193;-63
2023/08/01 13:42:23;;;;;;;22.15;15.05;;;23.30;62.80;;;;;;5104672;28;20205;-62
2023/08/01 13:45:03;;;;;;;24.65;17.90;;;23.30;62.80;;;;;;5107114;27;20213;-61
2023/08/01 13:47:30;;;;;;;30.73;20.23;;;23.30;62.60;;;;;;5109308;27;20196;-59
2023/08/01 13:49:58;;;;;;;25.85;19.75;;;23.40;62.50;;;;;;5110414;27;20228;-53